Time;durP1;ratioP1;P1;durP2;ratioP2;P2;SDS_P1;SDS_P2;PMS_P1;PMS_P2;Temp;Humidity;BMP_temperature;BMP_pressure;BME280_temperature;BME280_humidity;BME280_pressure;Samples;Min_cycle;Max_cycle;Signal;HPM_P1;HPM_P2
2023/01/17 00:01:35;;;;;;;1.67;1.38;;;3.50;99.90;;;;;;4998021;28;92309;-37
2023/01/17 00:12:14;;;;;;;1.77;1.67;;;3.50;99.90;;;;;;4995231;28;94310;-34
2023/01/17 00:14:40;;;;;;;2.63;1.92;;;3.50;99.90;;;;;;4997488;28;92651;-33
2023/01/17 00:17:05;;;;;;;4.38;1.77;;;3.50;99.90;;;;;;4996555;28;95344;-34
2023/01/17 01:35:19;;;;;;;2.60;0.80;;;3.40;99.90;;;;;;4997024;28;95400;-33
2023/01/17 01:37:44;;;;;;;0.75;0.75;;;3.30;99.90;;;;;;4999347;28;93111;-31
2023/01/17 01:40:11;;;;;;;0.52;0.52;;;3.30;99.90;;;;;;4999753;28;92652;-34
2023/01/17 01:42:36;;;;;;;1.25;0.75;;;3.10;99.90;;;;;;4999098;28;93940;-32
2023/01/17 01:45:15;;;;;;;5.57;1.42;;;3.10;99.90;;;;;;4991520;28;94663;-31
2023/01/17 01:47:40;;;;;;;;;;;3.10;99.90;;;;;;4987090;28;92144;-33
2023/01/17 01:50:08;;;;;;;0.93;0.77;;;3.10;99.90;;;;;;5001630;28;94676;-31
2023/01/17 01:52:38;;;;;;;1.55;0.95;;;3.20;99.90;;;;;;5000268;28;94324;-31
2023/01/17 01:55:14;;;;;;;2.22;0.98;;;3.00;99.90;;;;;;4999742;28;94516;-32
2023/01/17 01:57:42;;;;;;;2.78;1.08;;;3.00;99.90;;;;;;4998954;28;94213;-31
2023/01/17 02:00:28;;;;;;;1.40;0.80;;;2.90;99.90;;;;;;4999443;28;92120;-34
2023/01/17 02:02:57;;;;;;;1.50;0.65;;;2.90;99.90;;;;;;4998664;28;95722;-30
2023/01/17 02:05:26;;;;;;;2.53;1.17;;;2.80;99.90;;;;;;4999486;28;95322;-35
2023/01/17 02:08:01;;;;;;;2.15;1.08;;;2.80;99.90;;;;;;4999856;28;94441;-32
2023/01/17 02:10:27;;;;;;;1.45;0.75;;;2.80;99.90;;;;;;4999582;28;92119;-31
2023/01/17 02:12:54;;;;;;;4.13;1.10;;;2.80;99.90;;;;;;4998974;28;94321;-32
2023/01/17 02:15:26;;;;;;;2.83;0.90;;;2.90;99.90;;;;;;5000109;28;94650;-31
2023/01/17 02:18:28;;;;;;;2.92;1.15;;;2.90;99.90;;;;;;4998971;28;93406;-30
2023/01/17 02:21:03;;;;;;;7.60;1.52;;;3.00;99.90;;;;;;4999789;28;93801;-31
2023/01/17 02:23:42;;;;;;;2.20;1.17;;;2.90;99.90;;;;;;4998570;28;94744;-34
2023/01/17 02:26:34;;;;;;;5.35;1.70;;;2.90;99.90;;;;;;4998806;28;95098;-30
2023/01/17 02:29:24;;;;;;;4.40;1.08;;;2.80;99.90;;;;;;4995754;28;95897;-33
2023/01/17 02:31:54;;;;;;;2.05;0.60;;;2.90;99.90;;;;;;4999282;28;93628;-34
2023/01/17 02:34:41;;;;;;;1.35;0.73;;;2.80;99.90;;;;;;4999604;28;95513;-34
2023/01/17 02:37:20;;;;;;;2.30;0.80;;;2.80;99.90;;;;;;4998941;28;94484;-30
2023/01/17 02:39:58;;;;;;;0.70;0.70;;;2.80;99.90;;;;;;4999688;28;93005;-32
2023/01/17 02:42:29;;;;;;;2.60;1.13;;;2.80;99.90;;;;;;4999221;28;94564;-31
2023/01/17 02:44:54;;;;;;;1.25;1.00;;;2.80;99.90;;;;;;4998666;28;94602;-32
2023/01/17 02:47:23;;;;;;;2.45;0.73;;;2.70;99.90;;;;;;4998730;28;94584;-31
2023/01/17 02:49:51;;;;;;;5.55;0.85;;;2.60;99.90;;;;;;4999594;28;94641;-34
2023/01/17 02:52:34;;;;;;;8.30;1.38;;;2.60;99.90;;;;;;4999116;28;93508;-35
2023/01/17 02:55:19;;;;;;;5.55;1.05;;;2.50;99.90;;;;;;4997733;28;95554;-32
2023/01/17 02:58:12;;;;;;;1.35;0.88;;;2.40;99.90;;;;;;4997656;28;96109;-34
2023/01/17 03:00:43;;;;;;;2.42;1.15;;;2.50;99.90;;;;;;4998404;28;93380;-33
2023/01/17 03:03:33;;;;;;;1.42;1.30;;;2.50;99.90;;;;;;4998619;28;93483;-32
2023/01/17 03:06:14;;;;;;;1.75;1.13;;;2.50;99.90;;;;;;4968064;28;95486;-32
2023/01/17 03:08:46;;;;;;;1.58;0.88;;;2.40;99.90;;;;;;4998232;28;95101;-31
2023/01/17 03:11:12;;;;;;;2.78;1.52;;;2.30;99.90;;;;;;4998800;28;93549;-32
2023/01/17 03:13:38;;;;;;;1.15;0.80;;;2.40;99.90;;;;;;4999111;28;92990;-32
2023/01/17 03:16:08;;;;;;;7.63;1.27;;;2.30;99.90;;;;;;4998447;28;94665;-32
2023/01/17 03:18:33;;;;;;;2.67;1.35;;;2.30;99.90;;;;;;4998166;28;94914;-32
2023/01/17 03:20:59;;;;;;;11.10;2.00;;;2.30;99.90;;;;;;4997670;28;95394;-34
2023/01/17 03:23:25;;;;;;;2.75;1.13;;;2.30;99.90;;;;;;4998598;28;93205;-31
2023/01/17 03:25:50;;;;;;;5.78;1.50;;;2.30;99.90;;;;;;4997795;28;94452;-33
2023/01/17 03:28:16;;;;;;;6.18;2.05;;;2.30;99.90;;;;;;4998459;28;94518;-32
2023/01/17 03:30:42;;;;;;;2.15;1.38;;;2.40;99.90;;;;;;4998363;28;94032;-32
2023/01/17 03:33:07;;;;;;;1.52;1.10;;;2.40;99.90;;;;;;4997911;28;93115;-32
2023/01/17 03:35:33;;;;;;;7.10;1.48;;;2.40;99.90;;;;;;4998112;28;96162;-30
2023/01/17 03:37:59;;;;;;;7.10;1.13;;;2.30;99.90;;;;;;4997697;28;94037;-31
2023/01/17 03:40:24;;;;;;;2.47;1.23;;;2.40;99.90;;;;;;4998781;28;92070;-34
2023/01/17 03:42:50;;;;;;;3.55;1.02;;;2.40;99.90;;;;;;4997325;28;92479;-31
2023/01/17 03:45:16;;;;;;;1.70;0.80;;;2.50;99.90;;;;;;4997087;28;95915;-31
2023/01/17 03:47:42;;;;;;;8.07;1.77;;;2.50;99.90;;;;;;4997816;28;95035;-34
2023/01/17 03:50:08;;;;;;;2.08;1.05;;;2.60;99.90;;;;;;4998239;28;93449;-34
2023/01/17 03:52:34;;;;;;;5.10;1.15;;;2.60;99.90;;;;;;4997733;28;93339;-34
2023/01/17 03:55:01;;;;;;;8.73;1.77;;;2.50;99.90;;;;;;4997539;28;94528;-34
2023/01/17 03:57:27;;;;;;;10.60;1.77;;;2.50;99.90;;;;;;4997742;28;94248;-31
2023/01/17 03:59:53;;;;;;;3.38;1.17;;;2.50;99.90;;;;;;4997351;28;95092;-32
2023/01/17 04:02:18;;;;;;;10.35;2.05;;;2.50;99.90;;;;;;4997823;28;92748;-32
2023/01/17 04:04:44;;;;;;;2.88;1.40;;;2.50;99.90;;;;;;4997885;28;92765;-33
2023/01/17 04:07:10;;;;;;;3.40;1.52;;;2.50;99.90;;;;;;4996855;28;94536;-33
2023/01/17 04:09:35;;;;;;;5.28;1.80;;;2.40;99.90;;;;;;4997433;28;95436;-36
2023/01/17 04:12:01;;;;;;;7.90;1.33;;;2.40;99.90;;;;;;4997975;28;94126;-32
2023/01/17 04:14:27;;;;;;;3.00;1.15;;;2.40;99.90;;;;;;4997341;28;94110;-32
2023/01/17 04:16:53;;;;;;;1.75;1.08;;;2.40;99.90;;;;;;4997040;28;94665;-31
2023/01/17 04:19:19;;;;;;;2.83;0.98;;;2.40;99.90;;;;;;4997822;28;93462;-33
2023/01/17 04:21:45;;;;;;;4.97;1.33;;;2.40;99.90;;;;;;4996960;28;93112;-33
2023/01/17 04:24:10;;;;;;;4.05;1.42;;;2.30;99.90;;;;;;4997548;28;95293;-31
2023/01/17 04:26:36;;;;;;;6.40;1.27;;;2.30;99.90;;;;;;4996931;28;94611;-33
2023/01/17 04:29:02;;;;;;;1.70;1.02;;;2.30;99.90;;;;;;4997766;28;93968;-32
2023/01/17 04:31:27;;;;;;;4.82;1.08;;;2.20;99.90;;;;;;4997086;28;93066;-33
2023/01/17 04:33:53;;;;;;;6.03;1.65;;;2.20;99.90;;;;;;4996559;28;95920;-31
2023/01/17 04:36:19;;;;;;;6.05;1.83;;;2.10;99.90;;;;;;4997001;28;95666;-31
2023/01/17 04:38:44;;;;;;;2.80;1.33;;;2.10;99.90;;;;;;4997146;28;92253;-34
2023/01/17 04:41:10;;;;;;;3.38;1.25;;;2.10;99.90;;;;;;4997509;28;92056;-32
2023/01/17 04:43:35;;;;;;;2.05;1.05;;;2.10;99.90;;;;;;4995725;28;94891;-36
2023/01/17 04:46:03;;;;;;;5.10;1.20;;;2.10;99.90;;;;;;4997280;28;94621;-31
2023/01/17 04:48:30;;;;;;;2.70;1.30;;;2.00;99.90;;;;;;4997268;28;94410;-33
2023/01/17 04:51:04;;;;;;;3.97;1.30;;;1.90;99.90;;;;;;4996563;28;93202;-31
2023/01/17 04:53:30;;;;;;;10.80;1.73;;;1.90;99.90;;;;;;4997338;28;94343;-34
2023/01/17 04:55:56;;;;;;;3.30;1.45;;;1.90;99.90;;;;;;4996077;28;94459;-32
2023/01/17 04:58:22;;;;;;;3.85;1.10;;;1.90;99.90;;;;;;4997529;28;94337;-33
2023/01/17 05:00:49;;;;;;;7.57;1.30;;;1.90;99.90;;;;;;4997475;28;92337;-32
2023/01/17 05:03:19;;;;;;;2.13;0.93;;;1.90;99.90;;;;;;4996310;28;94614;-32
2023/01/17 05:05:46;;;;;;;6.65;1.60;;;1.90;99.90;;;;;;4996366;28;94626;-33
2023/01/17 05:08:12;;;;;;;2.60;1.35;;;1.90;99.90;;;;;;4997166;28;92898;-32
2023/01/17 05:10:38;;;;;;;4.95;1.50;;;1.90;99.90;;;;;;4996831;28;92455;-34
2023/01/17 05:13:04;;;;;;;4.60;1.60;;;1.80;99.90;;;;;;4996224;28;94937;-30
2023/01/17 05:15:29;;;;;;;10.13;1.65;;;1.80;99.90;;;;;;4997061;28;94379;-33
2023/01/17 05:17:55;;;;;;;4.47;0.82;;;1.70;99.90;;;;;;4996576;28;94370;-34
2023/01/17 05:20:22;;;;;;;3.63;1.02;;;1.80;99.90;;;;;;4982927;28;92690;-32
2023/01/17 05:22:54;;;;;;;1.08;1.08;;;1.80;99.90;;;;;;4995886;28;95700;-31
2023/01/17 05:25:21;;;;;;;2.70;1.10;;;1.70;99.90;;;;;;4996423;28;95093;-33
2023/01/17 05:27:47;;;;;;;3.08;1.42;;;1.70;99.90;;;;;;4996529;28;93552;-33
2023/01/17 05:30:12;;;;;;;4.57;2.05;;;1.70;99.90;;;;;;4996299;28;92926;-33
2023/01/17 05:32:38;;;;;;;3.30;1.45;;;1.60;99.90;;;;;;4996936;28;95471;-32
2023/01/17 05:35:04;;;;;;;4.03;1.35;;;1.60;99.90;;;;;;4996703;28;94226;-32
2023/01/17 05:37:30;;;;;;;7.85;2.15;;;1.60;99.90;;;;;;4996399;28;93054;-35
2023/01/17 05:39:55;;;;;;;4.30;1.17;;;1.50;99.90;;;;;;4996672;28;93793;-31
2023/01/17 05:42:21;;;;;;;9.90;2.10;;;1.50;99.90;;;;;;4990695;28;95365;-31
2023/01/17 05:44:46;;;;;;;1.85;1.40;;;1.50;99.90;;;;;;4976313;28;93487;-30
2023/01/17 05:47:12;;;;;;;3.63;1.20;;;1.40;99.90;;;;;;4975847;28;94144;-32
2023/01/17 05:49:37;;;;;;;6.38;1.50;;;1.40;99.90;;;;;;4976276;28;94725;-32
2023/01/17 05:52:03;;;;;;;4.80;2.20;;;1.40;99.90;;;;;;4976724;28;94314;-32
2023/01/17 05:54:29;;;;;;;6.93;1.75;;;1.40;99.90;;;;;;4976382;28;92768;-32
2023/01/17 05:56:54;;;;;;;2.55;1.90;;;1.30;99.90;;;;;;4976923;28;93136;-30
2023/01/17 05:59:20;;;;;;;1.55;0.73;;;1.30;99.90;;;;;;4976192;28;92213;-30
2023/01/17 06:01:45;;;;;;;6.72;1.92;;;1.30;99.90;;;;;;4976393;28;94358;-33
2023/01/17 06:04:11;;;;;;;6.50;2.00;;;1.30;99.90;;;;;;4976246;28;93905;-33
2023/01/17 06:06:37;;;;;;;6.13;1.00;;;1.20;99.90;;;;;;4976550;28;92895;-32
2023/01/17 06:09:02;;;;;;;9.80;1.70;;;1.20;99.90;;;;;;4976240;28;93831;-32
2023/01/17 06:11:28;;;;;;;5.13;1.75;;;1.20;99.90;;;;;;4975179;28;95160;-32
2023/01/17 06:13:54;;;;;;;7.50;1.85;;;1.20;99.90;;;;;;4975053;28;94647;-32
2023/01/17 06:16:19;;;;;;;3.60;1.40;;;1.20;99.90;;;;;;4981180;28;92209;-31
2023/01/17 06:18:45;;;;;;;6.95;1.70;;;1.10;99.90;;;;;;4978777;28;94737;-32
2023/01/17 06:21:10;;;;;;;2.47;1.75;;;1.10;99.90;;;;;;4979757;28;94746;-31
2023/01/17 06:23:36;;;;;;;7.22;1.85;;;1.10;99.90;;;;;;4980490;28;94064;-32
2023/01/17 06:26:02;;;;;;;4.60;1.42;;;1.10;99.90;;;;;;4985303;28;92239;-31
2023/01/17 06:28:28;;;;;;;2.47;1.20;;;1.10;99.90;;;;;;4992110;28;92776;-32
2023/01/17 06:30:54;;;;;;;3.15;1.33;;;1.10;99.90;;;;;;4993030;28;94262;-32
2023/01/17 06:33:19;;;;;;;5.55;1.92;;;1.10;99.90;;;;;;4983520;28;94735;-34
2023/01/17 06:35:49;;;;;;;2.55;1.65;;;1.10;99.90;;;;;;4990830;28;94569;-32
2023/01/17 06:38:15;;;;;;;3.50;1.42;;;1.10;99.90;;;;;;4994687;28;94092;-31
2023/01/17 06:40:41;;;;;;;3.70;1.58;;;1.10;99.90;;;;;;4989355;28;94326;-31
2023/01/17 06:43:06;;;;;;;1.50;1.00;;;1.10;99.90;;;;;;4998866;28;94233;-34
2023/01/17 06:45:34;;;;;;;1.88;1.13;;;1.00;99.90;;;;;;5011685;28;93671;-32
2023/01/17 06:48:02;;;;;;;3.17;1.70;;;1.00;99.90;;;;;;5012681;28;93418;-31
2023/01/17 06:50:28;;;;;;;3.42;1.67;;;1.10;99.90;;;;;;5011912;27;94440;-34
2023/01/17 06:53:02;;;;;;;3.40;1.95;;;1.00;99.90;;;;;;5012446;28;94067;-30
2023/01/17 06:55:29;;;;;;;4.80;2.13;;;1.00;99.90;;;;;;4995690;28;94914;-32
2023/01/17 06:57:56;;;;;;;3.83;1.63;;;1.10;99.90;;;;;;4996425;28;94428;-34
2023/01/17 07:00:22;;;;;;;8.45;1.90;;;1.00;99.90;;;;;;4995401;28;95290;-33
2023/01/17 07:02:49;;;;;;;6.68;1.95;;;1.00;99.90;;;;;;5008503;28;95164;-33
2023/01/17 07:05:16;;;;;;;4.07;1.60;;;1.00;99.90;;;;;;5012673;28;93061;-32
2023/01/17 07:07:42;;;;;;;4.85;1.52;;;1.00;99.90;;;;;;5014517;27;94076;-33
2023/01/17 07:10:08;;;;;;;3.22;1.90;;;1.00;99.90;;;;;;5010193;27;96361;-32
2023/01/17 07:12:34;;;;;;;3.28;1.85;;;1.00;99.90;;;;;;5012548;28;94635;-32
2023/01/17 07:15:00;;;;;;;3.78;1.60;;;0.90;99.90;;;;;;5011491;27;94291;-31
2023/01/17 07:17:25;;;;;;;5.55;1.85;;;0.90;99.90;;;;;;5006847;28;91391;-31
2023/01/17 07:19:51;;;;;;;4.57;1.58;;;0.90;99.90;;;;;;5012231;27;94127;-32
2023/01/17 07:22:16;;;;;;;3.00;1.27;;;0.90;99.90;;;;;;5011717;28;94981;-33
2023/01/17 07:24:42;;;;;;;4.53;1.77;;;0.80;99.90;;;;;;5013818;28;94049;-33
2023/01/17 07:27:08;;;;;;;5.65;1.88;;;0.80;99.90;;;;;;5010403;27;92585;-30
2023/01/17 07:29:33;;;;;;;3.75;2.15;;;0.80;99.90;;;;;;5014539;28;94428;-32
2023/01/17 07:31:59;;;;;;;2.38;1.13;;;0.80;99.90;;;;;;5008804;28;94384;-32
2023/01/17 07:34:25;;;;;;;8.45;1.67;;;0.80;99.90;;;;;;5004760;27;93734;-34
2023/01/17 07:36:53;;;;;;;6.43;1.77;;;0.80;99.90;;;;;;5005921;28;92974;-31
2023/01/17 07:39:19;;;;;;;2.03;1.05;;;0.80;99.90;;;;;;5009473;28;94421;-33
2023/01/17 07:41:45;;;;;;;5.25;1.52;;;0.80;99.90;;;;;;5011421;27;94428;-32
2023/01/17 07:44:12;;;;;;;2.25;1.10;;;0.90;99.90;;;;;;5006297;28;93109;-33
2023/01/17 07:46:38;;;;;;;3.03;1.60;;;0.90;99.90;;;;;;5011316;28;93737;-31
2023/01/17 07:49:03;;;;;;;4.28;1.88;;;0.90;99.90;;;;;;5006384;28;95639;-34
2023/01/17 07:51:29;;;;;;;4.22;1.48;;;0.90;99.90;;;;;;5011453;28;95433;-32
2023/01/17 07:53:55;;;;;;;7.15;1.67;;;0.90;99.90;;;;;;5008681;28;93545;-32
2023/01/17 07:56:20;;;;;;;6.03;1.75;;;1.00;99.90;;;;;;4995809;28;93268;-31
2023/01/17 07:58:47;;;;;;;5.95;1.48;;;0.90;99.90;;;;;;4995306;28;95533;-31
2023/01/17 08:01:14;;;;;;;1.35;1.25;;;0.90;99.90;;;;;;4995402;28;94187;-32
2023/01/17 08:03:40;;;;;;;2.67;1.10;;;0.90;99.90;;;;;;4995546;28;94640;-36
2023/01/17 08:06:19;;;;;;;1.80;1.50;;;0.90;99.90;;;;;;4996623;28;92349;-30
2023/01/17 08:08:45;;;;;;;1.77;1.67;;;0.90;99.90;;;;;;4995575;28;95905;-31
2023/01/17 08:11:11;;;;;;;1.63;1.20;;;0.90;99.90;;;;;;4995213;28;94726;-32
2023/01/17 08:13:37;;;;;;;3.30;1.67;;;0.90;99.90;;;;;;4995571;28;95169;-34
2023/01/17 08:16:03;;;;;;;6.10;1.63;;;0.90;99.90;;;;;;4995069;28;92174;-33
2023/01/17 08:18:29;;;;;;;5.45;2.25;;;1.00;99.90;;;;;;4993973;28;94808;-30
2023/01/17 08:20:55;;;;;;;4.50;1.77;;;1.00;99.90;;;;;;4995590;28;94300;-32
2023/01/17 08:23:21;;;;;;;9.20;2.58;;;1.10;99.90;;;;;;4995340;28;94307;-33
2023/01/17 08:25:46;;;;;;;4.75;1.55;;;1.10;99.90;;;;;;4995846;28;92873;-32
2023/01/17 08:28:12;;;;;;;7.03;1.38;;;1.10;99.90;;;;;;4995338;28;94594;-32
2023/01/17 08:30:38;;;;;;;3.33;1.52;;;1.10;99.90;;;;;;4995588;28;94785;-31
2023/01/17 08:33:04;;;;;;;5.75;2.05;;;1.20;99.90;;;;;;4994463;28;93054;-30
2023/01/17 08:35:30;;;;;;;5.72;1.63;;;1.20;99.90;;;;;;4994992;28;94392;-31
2023/01/17 08:37:56;;;;;;;1.38;1.10;;;1.10;99.90;;;;;;4994246;28;95466;-35
2023/01/17 08:40:23;;;;;;;7.70;1.33;;;1.20;99.90;;;;;;4995281;28;95177;-32
2023/01/17 08:42:59;;;;;;;3.67;2.45;;;1.30;99.90;;;;;;4994027;28;93306;-31
2023/01/17 08:45:26;;;;;;;2.78;1.80;;;1.30;99.90;;;;;;4979065;28;93076;-33
2023/01/17 08:47:52;;;;;;;3.60;1.65;;;1.40;99.90;;;;;;4975273;28;96010;-32
2023/01/17 08:50:20;;;;;;;2.00;1.30;;;1.30;99.90;;;;;;4975566;28;95134;-32
2023/01/17 08:52:49;;;;;;;;;;;1.30;99.90;;;;;;4975639;28;94160;-35
2023/01/17 08:55:16;;;;;;;3.47;1.58;;;1.30;99.90;;;;;;4984878;28;91478;-32
2023/01/17 08:57:41;;;;;;;3.45;2.10;;;1.30;99.90;;;;;;4993822;28;94449;-31
2023/01/17 09:00:08;;;;;;;3.25;1.63;;;1.20;99.90;;;;;;4994287;28;94536;-30
2023/01/17 09:02:35;;;;;;;4.80;1.50;;;1.20;99.90;;;;;;4995182;28;95162;-33
2023/01/17 09:05:01;;;;;;;5.13;1.73;;;1.30;99.90;;;;;;4994586;28;94166;-31
2023/01/17 09:07:27;;;;;;;6.85;1.90;;;1.40;99.90;;;;;;4994722;28;94607;-33
2023/01/17 09:09:53;;;;;;;7.88;1.70;;;1.50;99.90;;;;;;4994002;28;94438;-33
2023/01/17 09:12:21;;;;;;;2.28;1.65;;;1.60;99.90;;;;;;4995740;28;93101;-31
2023/01/17 09:14:47;;;;;;;2.90;2.38;;;1.80;99.90;;;;;;4993866;28;92110;-33
2023/01/17 09:17:13;;;;;;;5.43;2.22;;;2.00;99.90;;;;;;4994600;28;94340;-34
2023/01/17 09:19:42;;;;;;;2.35;1.55;;;2.10;99.90;;;;;;4994109;28;94955;-36
2023/01/17 09:22:08;;;;;;;3.42;1.80;;;2.30;99.90;;;;;;4995189;28;95191;-30
2023/01/17 09:24:34;;;;;;;4.70;2.05;;;2.40;99.90;;;;;;4994413;28;93323;-31
2023/01/17 09:27:00;;;;;;;2.65;1.77;;;2.60;99.90;;;;;;4993721;28;96738;-32
2023/01/17 09:29:26;;;;;;;4.20;1.65;;;2.70;99.90;;;;;;4994051;28;93634;-33
2023/01/17 09:31:52;;;;;;;2.25;1.90;;;2.80;99.90;;;;;;4994570;28;93797;-33
2023/01/17 09:34:18;;;;;;;4.30;1.55;;;3.00;99.90;;;;;;4987485;28;92918;-32
2023/01/17 09:36:43;;;;;;;3.88;2.10;;;3.20;99.90;;;;;;4987606;28;93676;-33
2023/01/17 09:39:10;;;;;;;10.63;2.20;;;3.10;99.90;;;;;;4989604;28;94662;-33
2023/01/17 09:41:59;;;;;;;6.45;2.17;;;3.30;99.90;;;;;;4990760;28;93351;-35
2023/01/17 09:44:46;;;;;;;2.22;1.92;;;3.40;99.90;;;;;;5053546;22;92475;-33
2023/01/17 09:47:30;;;;;;;2.22;1.27;;;3.30;99.90;;;;;;5017469;27;94694;-33
2023/01/17 09:50:24;;;;;;;8.95;2.03;;;3.20;99.90;;;;;;5031343;27;94533;-30
2023/01/17 09:53:00;;;;;;;5.35;2.10;;;3.10;99.90;;;;;;5003978;27;95290;-31
2023/01/17 09:55:49;;;;;;;11.48;2.38;;;3.00;99.90;;;;;;5019746;27;93112;-31
2023/01/17 09:58:20;;;;;;;6.00;1.63;;;3.00;99.90;;;;;;5010944;27;94991;-31
2023/01/17 10:00:56;;;;;;;5.97;3.03;;;2.90;99.90;;;;;;4996946;28;94149;-32
2023/01/17 10:03:44;;;;;;;4.75;2.63;;;2.90;99.90;;;;;;4997808;28;92923;-33
2023/01/17 10:06:42;;;;;;;4.47;2.50;;;3.00;99.90;;;;;;4988351;27;93053;-32
2023/01/17 10:09:53;;;;;;;5.43;3.03;;;3.00;99.90;;;;;;4996896;28;94740;-33
2023/01/17 10:12:41;;;;;;;4.85;2.65;;;3.00;99.90;;;;;;4998351;27;94713;-31
2023/01/17 10:15:44;;;;;;;9.48;2.78;;;3.10;99.90;;;;;;4997327;27;94678;-33
2023/01/17 10:18:38;;;;;;;5.63;2.67;;;3.10;99.90;;;;;;4997393;27;94102;-34
2023/01/17 10:21:28;;;;;;;7.97;3.33;;;3.10;99.90;;;;;;4997369;27;95671;-30
2023/01/17 10:24:33;;;;;;;5.35;3.20;;;3.20;99.90;;;;;;4997658;27;95792;-33
2023/01/17 10:27:00;;;;;;;3.85;3.03;;;3.30;99.90;;;;;;4965334;28;92254;-31
2023/01/17 10:29:31;;;;;;;5.28;2.83;;;3.30;99.90;;;;;;4997174;28;93955;-34
2023/01/17 10:31:59;;;;;;;3.78;2.50;;;3.40;99.90;;;;;;4996811;27;94400;-34
2023/01/17 10:34:37;;;;;;;11.27;3.10;;;3.50;99.90;;;;;;5014516;28;94988;-34
2023/01/17 10:37:26;;;;;;;8.68;3.47;;;3.40;99.90;;;;;;5018150;27;94489;-32
2023/01/17 10:39:56;;;;;;;10.75;3.08;;;3.50;99.90;;;;;;5005197;27;91845;-31
2023/01/17 10:42:27;;;;;;;7.05;2.70;;;3.50;99.90;;;;;;5017372;27;93919;-31
2023/01/17 10:45:04;;;;;;;4.97;3.05;;;3.60;99.90;;;;;;5017411;27;94461;-32
2023/01/17 10:47:35;;;;;;;5.82;3.28;;;3.60;99.90;;;;;;5007322;27;95110;-32
2023/01/17 10:50:04;;;;;;;6.57;2.80;;;3.70;99.90;;;;;;5018039;27;93670;-32
2023/01/17 10:52:58;;;;;;;5.13;2.25;;;3.70;99.90;;;;;;5018507;27;94825;-34
2023/01/17 10:55:46;;;;;;;5.40;2.70;;;3.70;99.90;;;;;;5017403;27;94509;-34
2023/01/17 10:58:12;;;;;;;2.85;2.20;;;3.80;99.90;;;;;;5011817;28;93255;-32
2023/01/17 11:00:49;;;;;;;7.07;2.78;;;3.80;99.90;;;;;;4996326;27;93606;-32
2023/01/17 11:03:19;;;;;;;5.68;2.55;;;3.90;99.90;;;;;;4996310;28;94202;-35
2023/01/17 11:06:07;;;;;;;6.95;2.97;;;4.00;99.90;;;;;;4996201;27;93148;-34
2023/01/17 11:08:55;;;;;;;2.37;2.17;;;4.00;99.90;;;;;;4993208;28;93454;-32
2023/01/17 11:11:31;;;;;;;6.45;2.65;;;4.10;99.90;;;;;;5022811;27;93027;-33
2023/01/17 11:14:02;;;;;;;6.00;2.42;;;4.10;99.90;;;;;;4998733;27;95071;-32
2023/01/17 11:16:32;;;;;;;2.38;1.92;;;4.20;99.90;;;;;;5026892;27;93889;-31
2023/01/17 11:19:27;;;;;;;2.72;2.25;;;4.20;99.90;;;;;;5025074;27;94529;-30
2023/01/17 11:21:57;;;;;;;5.55;2.60;;;4.30;99.90;;;;;;5025342;27;95104;-33
2023/01/17 11:24:51;;;;;;;6.72;2.92;;;4.40;99.90;;;;;;5026831;27;94743;-33
2023/01/17 11:27:25;;;;;;;4.80;2.53;;;4.40;99.90;;;;;;5022941;27;94769;-32
2023/01/17 11:30:17;;;;;;;5.50;2.72;;;4.50;99.90;;;;;;5017077;27;93092;-35
2023/01/17 11:32:56;;;;;;;7.22;3.10;;;4.60;99.90;;;;;;5018992;27;92914;-32
2023/01/17 11:35:26;;;;;;;6.32;2.13;;;4.70;99.90;;;;;;5025527;27;94175;-31
2023/01/17 11:38:17;;;;;;;2.75;2.50;;;4.70;99.90;;;;;;5025002;27;95817;-32
2023/01/17 11:40:45;;;;;;;9.85;2.50;;;4.80;99.90;;;;;;5023483;27;95270;-32
2023/01/17 11:43:10;;;;;;;3.05;2.58;;;4.80;99.90;;;;;;5027391;27;93036;-32
2023/01/17 11:45:37;;;;;;;3.83;2.33;;;4.90;99.90;;;;;;5024682;27;94705;-32
2023/01/17 11:48:12;;;;;;;3.53;2.45;;;4.90;99.90;;;;;;5022609;27;94833;-33
2023/01/17 11:50:52;;;;;;;3.85;3.20;;;4.90;99.90;;;;;;5022663;27;94421;-34
2023/01/17 11:53:23;;;;;;;6.43;2.70;;;4.80;99.90;;;;;;5026770;27;94690;-32
2023/01/17 11:55:57;;;;;;;3.22;2.88;;;4.60;99.90;;;;;;5018075;27;94804;-32
2023/01/17 11:58:23;;;;;;;4.53;2.53;;;4.50;99.90;;;;;;5009236;27;94521;-35
2023/01/17 12:01:01;;;;;;;5.90;2.80;;;4.40;99.90;;;;;;4996147;28;92739;-33
2023/01/17 12:03:29;;;;;;;7.20;3.60;;;4.40;99.90;;;;;;4997712;27;93344;-31
2023/01/17 12:06:05;;;;;;;3.97;2.35;;;4.40;99.90;;;;;;5011780;28;96919;-32
2023/01/17 12:08:36;;;;;;;5.60;2.60;;;4.50;99.90;;;;;;5018245;27;94890;-32
2023/01/17 12:11:18;;;;;;;6.28;2.80;;;4.50;99.90;;;;;;5013379;27;93820;-34
2023/01/17 12:14:06;;;;;;;6.93;2.78;;;4.60;99.90;;;;;;5030384;27;94660;-32
2023/01/17 12:16:34;;;;;;;4.73;2.77;;;4.80;99.90;;;;;;5028768;27;96225;-32
2023/01/17 12:19:31;;;;;;;5.45;2.70;;;4.80;99.90;;;;;;5021972;27;96406;-33
2023/01/17 12:22:21;;;;;;;3.03;2.20;;;5.00;99.90;;;;;;5032211;27;94867;-33
2023/01/17 12:25:01;;;;;;;5.45;1.88;;;5.10;99.90;;;;;;5033683;27;92740;-32
2023/01/17 12:27:37;;;;;;;3.78;2.13;;;5.20;99.90;;;;;;5010308;27;94700;-31
2023/01/17 12:30:06;;;;;;;2.17;1.98;;;5.30;99.90;;;;;;5031503;27;95497;-33
2023/01/17 12:32:51;;;;;;;6.68;3.08;;;5.30;99.90;;;;;;5017874;27;94206;-31
2023/01/17 12:35:26;;;;;;;11.85;2.90;;;5.40;99.90;;;;;;5012952;28;94288;-35
2023/01/17 12:37:59;;;;;;;4.45;2.83;;;5.40;99.90;;;;;;5012473;28;96389;-33
2023/01/17 12:40:35;;;;;;;13.30;3.30;;;5.50;99.90;;;;;;5028728;27;94475;-33
2023/01/17 12:43:11;;;;;;;2.42;2.03;;;5.50;99.90;;;;;;5033741;27;94464;-32
2023/01/17 12:45:41;;;;;;;6.78;2.90;;;5.40;99.90;;;;;;5031059;27;94353;-34
2023/01/17 12:48:15;;;;;;;6.72;2.88;;;5.40;99.90;;;;;;5023866;27;94690;-34
2023/01/17 12:51:04;;;;;;;5.40;2.45;;;5.40;99.90;;;;;;5029452;27;94902;-34
2023/01/17 12:53:44;;;;;;;4.40;2.58;;;5.40;99.90;;;;;;5034259;27;92845;-31
2023/01/17 12:56:31;;;;;;;12.30;3.08;;;5.40;99.90;;;;;;5012376;28;94737;-33
2023/01/17 12:59:14;;;;;;;5.78;3.17;;;5.30;99.90;;;;;;4994138;27;95409;-33
2023/01/17 13:01:56;;;;;;;5.10;3.15;;;5.30;99.90;;;;;;4994043;28;95540;-31
2023/01/17 13:05:00;;;;;;;3.25;2.20;;;5.20;99.90;;;;;;4994860;28;92491;-33
2023/01/17 13:07:40;;;;;;;2.63;2.42;;;5.20;99.90;;;;;;4931529;28;92734;-32
2023/01/17 13:10:06;;;;;;;2.53;2.33;;;5.10;99.90;;;;;;4988876;28;94340;-32
2023/01/17 13:12:35;;;;;;;6.15;3.00;;;5.10;99.90;;;;;;4994740;28;94510;-31
2023/01/17 13:15:05;;;;;;;5.65;3.10;;;5.10;99.90;;;;;;4995373;27;93076;-34
2023/01/17 13:17:45;;;;;;;3.20;2.35;;;5.10;99.90;;;;;;4994872;28;94276;-35
2023/01/17 13:20:13;;;;;;;4.70;2.17;;;5.00;99.90;;;;;;4994869;28;94862;-34
2023/01/17 13:22:40;;;;;;;3.53;2.35;;;4.90;99.90;;;;;;4994825;27;94528;-32
2023/01/17 13:25:31;;;;;;;5.38;2.88;;;4.90;99.90;;;;;;4994517;27;95014;-32
2023/01/17 13:28:23;;;;;;;9.48;1.98;;;4.80;99.90;;;;;;4994090;27;93543;-32
2023/01/17 13:31:11;;;;;;;3.50;2.38;;;4.80;99.90;;;;;;4993877;28;95069;-35
2023/01/17 13:34:05;;;;;;;4.47;2.58;;;4.80;99.90;;;;;;4997267;28;94171;-31
2023/01/17 13:36:36;;;;;;;2.97;2.17;;;4.70;99.90;;;;;;4998405;28;93106;-31
2023/01/17 13:39:23;;;;;;;3.63;2.17;;;4.70;99.90;;;;;;4998049;27;93170;-33
2023/01/17 13:41:51;;;;;;;2.90;1.60;;;4.70;99.90;;;;;;5011307;28;93716;-34
2023/01/17 13:44:26;;;;;;;5.00;2.08;;;4.70;99.90;;;;;;4998031;27;94073;-31
2023/01/17 13:47:01;;;;;;;5.88;3.28;;;4.70;99.90;;;;;;4997402;28;92580;-31
2023/01/17 13:49:34;;;;;;;4.10;2.38;;;4.60;99.90;;;;;;5005426;28;93886;-32
2023/01/17 13:52:09;;;;;;;2.88;2.22;;;4.60;99.90;;;;;;5001803;27;95357;-32
2023/01/17 13:54:43;;;;;;;6.07;2.55;;;4.70;99.90;;;;;;5004954;28;94227;-33
2023/01/17 13:57:31;;;;;;;8.43;2.55;;;4.60;99.90;;;;;;5006872;27;94270;-33
2023/01/17 14:00:20;;;;;;;2.25;2.03;;;4.60;99.90;;;;;;5011560;27;94917;-33
2023/01/17 14:02:47;;;;;;;3.72;2.45;;;4.60;99.90;;;;;;4996673;28;94655;-32
2023/01/17 14:05:16;;;;;;;7.78;2.45;;;4.60;99.90;;;;;;4996891;28;94927;-33
2023/01/17 14:08:01;;;;;;;;;;;4.60;99.90;;;;;;4997862;28;93403;-33
2023/01/17 14:10:45;;;;;;;4.20;1.73;;;4.60;99.90;;;;;;4999555;28;91500;-32
2023/01/17 14:13:36;;;;;;;5.18;2.20;;;4.60;99.90;;;;;;4997106;27;94665;-32
2023/01/17 14:16:21;;;;;;;1.77;1.50;;;4.60;99.90;;;;;;4996630;28;94073;-32
2023/01/17 14:18:47;;;;;;;2.92;2.25;;;4.60;99.90;;;;;;4996462;28;93479;-31
2023/01/17 14:21:30;;;;;;;5.18;2.30;;;4.60;99.90;;;;;;4997547;28;94022;-33
2023/01/17 14:24:02;;;;;;;5.28;2.22;;;4.50;99.90;;;;;;4996696;28;92743;-31
2023/01/17 14:26:51;;;;;;;3.55;1.95;;;4.60;99.90;;;;;;5010417;28;94387;-32
2023/01/17 14:29:42;;;;;;;5.78;2.45;;;4.60;99.90;;;;;;4997105;27;94292;-34
2023/01/17 14:32:17;;;;;;;3.80;2.13;;;4.60;99.90;;;;;;4997220;28;93495;-32
2023/01/17 14:34:49;;;;;;;4.88;2.50;;;4.60;99.90;;;;;;4996632;28;94512;-33
2023/01/17 14:37:28;;;;;;;10.93;2.63;;;4.60;99.90;;;;;;4978877;28;94195;-32
2023/01/17 14:39:54;;;;;;;2.65;1.58;;;4.50;99.90;;;;;;4996629;28;94277;-33
2023/01/17 14:42:22;;;;;;;5.50;2.17;;;4.50;99.90;;;;;;4995845;27;93307;-31
2023/01/17 14:45:05;;;;;;;3.95;2.15;;;4.50;99.90;;;;;;5006881;28;95545;-34
2023/01/17 14:47:34;;;;;;;2.53;2.03;;;4.40;99.90;;;;;;4996498;28;97907;-32